Time;durP1;ratioP1;P1;durP2;ratioP2;P2;SDS_P1;SDS_P2;PMS_P1;PMS_P2;Temp;Humidity;BMP_temperature;BMP_pressure;BME280_temperature;BME280_humidity;BME280_pressure;Samples;Min_cycle;Max_cycle;Signal;HPM_P1;HPM_P2
2022/01/31 00:03:46;;;;;;;15.07;5.40;;;4.00;99.90;;;;;;10393328;28;20268;-75
2022/01/31 00:08:47;;;;;;;14.83;4.87;;;4.10;99.90;;;;;;10387609;28;20225;-76
2022/01/31 00:13:57;;;;;;;12.53;4.87;;;4.20;99.90;;;;;;10408681;28;20228;-76
2022/01/31 00:18:59;;;;;;;14.37;5.50;;;4.20;99.90;;;;;;10371579;28;20322;-75
2022/01/31 00:24:00;;;;;;;15.77;5.30;;;4.20;99.90;;;;;;10395342;28;20223;-75
2022/01/31 00:29:00;;;;;;;12.67;4.80;;;4.30;99.90;;;;;;10382312;28;20213;-75
2022/01/31 00:34:01;;;;;;;12.63;4.77;;;4.20;99.90;;;;;;10400835;28;20213;-76
2022/01/31 00:39:03;;;;;;;16.00;4.90;;;4.20;99.90;;;;;;10373058;28;20352;-77
2022/01/31 00:44:17;;;;;;;13.27;5.03;;;4.20;99.90;;;;;;10379742;28;20252;-76
2022/01/31 00:54:33;;;;;;;14.93;4.90;;;4.20;99.90;;;;;;10396369;28;20242;-74
2022/01/31 00:59:34;;;;;;;11.97;5.13;;;4.20;99.90;;;;;;10387975;28;20224;-75
2022/01/31 01:04:35;;;;;;;13.20;4.80;;;4.10;99.90;;;;;;10392398;28;20220;-75
2022/01/31 01:09:37;;;;;;;16.53;4.87;;;4.10;99.90;;;;;;10381332;28;20221;-75
2022/01/31 01:14:38;;;;;;;10.10;4.50;;;4.10;99.90;;;;;;10396535;28;20300;-75
2022/01/31 01:19:39;;;;;;;17.13;4.67;;;4.00;99.90;;;;;;10374078;28;20268;-76
2022/01/31 01:25:04;;;;;;;21.03;4.77;;;4.00;99.90;;;;;;10397085;28;20244;-77
2022/01/31 01:30:14;;;;;;;15.73;4.50;;;4.00;99.90;;;;;;10371108;23;20233;-76
2022/01/31 01:35:15;;;;;;;15.73;4.63;;;4.10;99.90;;;;;;10297332;28;20229;-75
2022/01/31 01:40:16;;;;;;;10.40;3.87;;;4.10;99.90;;;;;;10342094;28;20229;-75
2022/01/31 01:45:22;;;;;;;19.43;4.83;;;4.10;99.90;;;;;;10341604;28;20201;-77
2022/01/31 01:50:22;;;;;;;11.83;4.20;;;4.00;99.90;;;;;;10330752;28;20202;-76
2022/01/31 01:55:30;;;;;;;13.43;3.90;;;4.00;99.90;;;;;;10338700;28;20335;-77
2022/01/31 02:00:49;;;;;;;15.13;4.00;;;4.00;99.90;;;;;;10356780;28;20328;-75
2022/01/31 02:05:49;;;;;;;11.10;4.13;;;4.10;99.90;;;;;;10367076;28;20229;-75
2022/01/31 02:10:53;;;;;;;15.20;4.67;;;4.10;99.90;;;;;;10363111;28;20225;-76
2022/01/31 02:15:58;;;;;;;12.70;4.17;;;4.10;99.90;;;;;;10347399;28;20368;-77
2022/01/31 02:21:10;;;;;;;12.23;4.47;;;4.20;99.90;;;;;;10379418;28;20233;-76
2022/01/31 02:26:11;;;;;;;13.63;5.07;;;4.20;99.90;;;;;;10344751;28;20316;-76
2022/01/31 02:31:15;;;;;;;17.10;5.20;;;4.20;99.90;;;;;;10348732;28;20225;-76
2022/01/31 02:36:15;;;;;;;17.50;4.97;;;4.20;99.90;;;;;;10337916;28;20213;-75
2022/01/31 02:41:16;;;;;;;15.13;4.50;;;4.20;99.90;;;;;;10350214;28;20569;-75
2022/01/31 02:46:17;;;;;;;15.63;4.73;;;4.20;99.90;;;;;;10351478;28;20227;-76
2022/01/31 02:51:22;;;;;;;13.30;4.47;;;4.20;99.90;;;;;;10340176;28;20383;-74
2022/01/31 02:56:22;;;;;;;12.23;4.13;;;4.30;99.90;;;;;;10365921;28;20301;-75
2022/01/31 03:01:23;;;;;;;11.17;4.10;;;4.30;99.90;;;;;;10355805;28;20289;-75
2022/01/31 03:06:24;;;;;;;14.50;4.53;;;4.40;99.90;;;;;;10355950;28;20237;-75
2022/01/31 03:11:24;;;;;;;13.70;4.00;;;4.40;99.90;;;;;;10329944;28;20590;-74
2022/01/31 03:16:25;;;;;;;12.50;4.20;;;4.40;99.90;;;;;;10356070;28;20225;-75
2022/01/31 03:21:25;;;;;;;16.07;4.23;;;4.50;99.90;;;;;;10354722;28;20232;-74
2022/01/31 03:26:26;;;;;;;17.10;4.10;;;4.50;99.90;;;;;;10363770;28;20280;-75
2022/01/31 03:31:27;;;;;;;13.37;3.60;;;4.50;99.90;;;;;;10352783;28;20690;-74
2022/01/31 03:36:27;;;;;;;10.13;3.57;;;4.40;99.90;;;;;;10336057;28;20225;-76
2022/01/31 03:41:28;;;;;;;13.93;4.47;;;4.40;99.90;;;;;;10346133;28;20699;-76
2022/01/31 03:46:31;;;;;;;19.80;4.50;;;4.40;99.90;;;;;;10350781;28;20499;-75
2022/01/31 03:51:31;;;;;;;14.63;4.47;;;4.40;99.90;;;;;;10364588;28;20232;-74
2022/01/31 03:56:32;;;;;;;11.70;3.77;;;4.40;99.90;;;;;;10340502;28;20260;-75
2022/01/31 04:01:33;;;;;;;8.63;3.77;;;4.40;99.90;;;;;;10337704;28;20220;-75
2022/01/31 04:06:34;;;;;;;14.03;4.27;;;4.40;99.90;;;;;;10342617;28;20240;-74
2022/01/31 04:11:35;;;;;;;14.43;4.30;;;4.30;99.90;;;;;;10364601;28;20700;-74
2022/01/31 04:16:36;;;;;;;10.17;4.17;;;4.30;99.90;;;;;;10347355;28;20736;-76
2022/01/31 04:21:36;;;;;;;11.73;3.63;;;4.30;99.90;;;;;;10369296;28;20217;-74
2022/01/31 04:26:44;;;;;;;12.80;4.27;;;4.40;99.90;;;;;;10356155;28;20745;-75
2022/01/31 04:31:49;;;;;;;14.10;4.50;;;4.40;99.90;;;;;;10346434;28;20225;-75
2022/01/31 04:36:50;;;;;;;15.10;4.23;;;4.40;99.90;;;;;;10349594;28;20230;-76
2022/01/31 04:41:51;;;;;;;11.27;4.17;;;4.40;99.90;;;;;;10343612;28;20226;-75
2022/01/31 04:46:54;;;;;;;11.20;3.70;;;4.40;99.90;;;;;;10351233;28;20232;-76
2022/01/31 04:51:56;;;;;;;13.93;4.03;;;4.50;99.90;;;;;;10367298;28;20606;-74
2022/01/31 04:56:57;;;;;;;12.07;3.97;;;4.60;99.90;;;;;;10356600;28;20260;-73
2022/01/31 05:01:57;;;;;;;17.30;4.77;;;4.60;99.90;;;;;;10352753;28;20253;-74
2022/01/31 05:06:58;;;;;;;17.33;4.67;;;4.70;99.90;;;;;;10337819;28;20229;-74
2022/01/31 05:11:59;;;;;;;16.97;4.77;;;4.70;99.90;;;;;;10348148;28;20241;-73
2022/01/31 05:17:00;;;;;;;12.33;4.40;;;4.70;99.90;;;;;;10333975;28;20712;-74
2022/01/31 05:22:01;;;;;;;16.23;4.63;;;4.50;99.90;;;;;;10363911;28;20285;-74
2022/01/31 05:27:02;;;;;;;13.67;4.73;;;4.50;99.90;;;;;;10363948;28;20240;-74
2022/01/31 05:32:03;;;;;;;21.60;5.53;;;4.50;99.90;;;;;;10335871;28;20239;-74
2022/01/31 05:37:04;;;;;;;15.73;4.97;;;4.50;99.90;;;;;;10336614;28;20579;-73
2022/01/31 05:42:05;;;;;;;18.77;5.10;;;4.40;99.90;;;;;;10361730;28;20276;-74
2022/01/31 05:47:06;;;;;;;14.90;5.63;;;4.40;99.90;;;;;;10376232;28;20646;-75
2022/01/31 05:52:08;;;;;;;15.03;5.00;;;4.30;99.90;;;;;;10353746;28;20229;-74
2022/01/31 05:57:10;;;;;;;18.03;4.67;;;4.30;99.90;;;;;;10337110;28;20245;-75
2022/01/31 06:02:14;;;;;;;17.17;4.53;;;4.30;99.90;;;;;;10384791;28;20276;-77
2022/01/31 06:13:08;;;;;;;12.40;4.43;;;4.40;99.90;;;;;;10342164;28;20225;-73
2022/01/31 06:18:08;;;;;;;9.67;3.77;;;4.40;99.90;;;;;;10369410;28;20324;-76
2022/01/31 06:23:09;;;;;;;13.13;4.30;;;4.40;99.90;;;;;;10394301;28;20224;-76
2022/01/31 06:28:10;;;;;;;10.77;3.40;;;4.50;99.90;;;;;;10356353;28;20974;-77
2022/01/31 06:33:15;;;;;;;9.07;4.17;;;4.50;99.90;;;;;;10318306;28;20240;-75
2022/01/31 06:38:16;;;;;;;7.50;3.20;;;4.60;99.90;;;;;;10370000;28;20287;-75
2022/01/31 06:43:17;;;;;;;7.33;3.17;;;4.60;99.90;;;;;;10351535;28;20399;-76
2022/01/31 06:48:18;;;;;;;5.60;2.90;;;4.60;99.90;;;;;;10361392;28;20284;-76
2022/01/31 06:53:25;;;;;;;6.77;2.60;;;4.60;99.90;;;;;;10333513;28;20235;-74
2022/01/31 06:58:27;;;;;;;6.20;2.30;;;4.70;99.90;;;;;;10355109;28;20234;-76
2022/01/31 07:03:27;;;;;;;6.10;2.33;;;4.70;99.90;;;;;;10357237;28;20224;-77
2022/01/31 07:08:28;;;;;;;3.50;1.90;;;4.80;99.90;;;;;;10336776;28;20587;-77
2022/01/31 07:13:39;;;;;;;3.97;1.90;;;4.80;99.90;;;;;;10340137;28;20238;-77
2022/01/31 07:18:40;;;;;;;2.07;1.40;;;4.90;99.90;;;;;;10357806;28;20241;-77
2022/01/31 07:29:01;;;;;;;3.60;2.13;;;5.00;99.90;;;;;;10365246;28;20308;-81
2022/01/31 07:34:07;;;;;;;3.97;1.60;;;5.00;99.90;;;;;;10347054;28;20229;-77
2022/01/31 07:39:08;;;;;;;3.20;1.30;;;4.80;99.90;;;;;;10344780;28;20256;-75
2022/01/31 07:44:09;;;;;;;2.73;1.37;;;4.80;99.90;;;;;;10330279;28;20236;-77
2022/01/31 07:49:10;;;;;;;1.63;1.13;;;4.90;99.90;;;;;;10339940;28;20233;-76
2022/01/31 07:54:22;;;;;;;3.53;1.47;;;5.00;99.90;;;;;;10362342;28;20229;-80
2022/01/31 07:59:23;;;;;;;2.33;1.20;;;5.20;99.90;;;;;;10328584;28;20284;-76
2022/01/31 08:04:24;;;;;;;1.77;1.40;;;5.50;99.90;;;;;;10348818;28;20225;-75
2022/01/31 08:09:25;;;;;;;3.03;1.30;;;6.00;99.90;;;;;;10370943;28;20225;-74
2022/01/31 08:14:25;;;;;;;1.70;1.10;;;6.40;99.90;;;;;;10373370;28;20233;-75
2022/01/31 08:19:27;;;;;;;4.30;1.40;;;6.30;99.90;;;;;;10372650;28;20763;-77
2022/01/31 08:24:29;;;;;;;2.33;1.40;;;6.30;99.90;;;;;;10347083;28;20284;-77
2022/01/31 08:29:35;;;;;;;2.93;1.23;;;6.20;99.90;;;;;;10337147;28;20261;-77
2022/01/31 08:39:57;;;;;;;3.37;1.40;;;6.00;99.90;;;;;;10357872;28;20280;-77
2022/01/31 08:44:57;;;;;;;2.67;1.00;;;6.00;99.90;;;;;;10347245;28;20221;-76
2022/01/31 08:49:58;;;;;;;1.57;1.00;;;6.20;99.90;;;;;;10331808;28;20328;-78
2022/01/31 08:55:04;;;;;;;2.40;1.27;;;6.30;99.90;;;;;;10370081;28;20229;-79
2022/01/31 09:05:14;;;;;;;2.40;1.27;;;6.30;99.90;;;;;;10370144;28;20701;-78
2022/01/31 09:10:14;;;;;;;2.53;1.40;;;6.20;99.90;;;;;;10345748;28;20316;-76
2022/01/31 09:15:15;;;;;;;4.23;1.80;;;6.10;99.90;;;;;;10354672;28;20192;-74
2022/01/31 09:20:16;;;;;;;1.93;1.20;;;6.00;99.90;;;;;;10358658;28;20251;-74
2022/01/31 09:25:17;;;;;;;3.77;1.23;;;6.00;99.90;;;;;;10359831;28;20204;-75
2022/01/31 09:30:20;;;;;;;2.27;1.47;;;6.10;99.90;;;;;;10338562;28;20593;-74
2022/01/31 09:35:23;;;;;;;4.07;1.30;;;6.20;99.90;;;;;;10347636;28;20187;-73
2022/01/31 09:40:23;;;;;;;1.50;0.90;;;6.40;99.90;;;;;;10352108;28;20242;-75
2022/01/31 09:45:38;;;;;;;2.83;1.10;;;6.50;99.90;;;;;;10359238;28;20221;-74
2022/01/31 09:51:05;;;;;;;5.10;1.47;;;6.60;99.90;;;;;;10343012;28;20337;-77
2022/01/31 09:56:13;;;;;;;2.87;1.10;;;6.70;99.90;;;;;;10343364;28;20228;-77
2022/01/31 10:01:15;;;;;;;2.53;1.30;;;6.70;99.90;;;;;;10336930;28;20242;-77
2022/01/31 10:06:23;;;;;;;3.27;1.27;;;6.80;99.90;;;;;;10341302;28;20229;-77
2022/01/31 10:11:39;;;;;;;3.27;1.40;;;6.70;99.90;;;;;;10345327;28;20685;-77
2022/01/31 10:16:44;;;;;;;4.43;1.33;;;6.50;99.90;;;;;;10355089;28;20221;-77
2022/01/31 10:21:57;;;;;;;4.90;1.23;;;6.60;99.90;;;;;;10351558;28;20226;-78
2022/01/31 10:27:09;;;;;;;4.03;1.03;;;6.80;99.90;;;;;;10361199;28;20245;-77
2022/01/31 10:32:23;;;;;;;6.23;1.13;;;7.00;99.90;;;;;;10333764;28;20236;-78
2022/01/31 10:37:26;;;;;;;2.67;1.07;;;7.10;99.90;;;;;;10337402;28;20314;-78
2022/01/31 10:54:06;;;;;;;3.47;1.23;;;7.10;99.90;;;;;;10332349;28;20225;-77
2022/01/31 10:59:15;;;;;;;2.00;0.80;;;7.30;99.90;;;;;;10356016;28;20230;-78
2022/01/31 11:04:17;;;;;;;4.30;0.77;;;7.50;99.90;;;;;;10337572;28;20246;-78
2022/01/31 11:09:19;;;;;;;2.53;0.87;;;7.60;99.90;;;;;;10340014;28;20229;-77
2022/01/31 11:14:20;;;;;;;2.30;0.90;;;7.60;99.90;;;;;;10341808;28;20238;-77
2022/01/31 11:19:32;;;;;;;2.03;0.53;;;7.70;99.90;;;;;;10346965;28;20289;-78
2022/01/31 11:24:44;;;;;;;3.83;0.60;;;7.70;99.90;;;;;;10346054;28;20703;-78
2022/01/31 11:29:48;;;;;;;1.73;0.53;;;7.70;99.90;;;;;;10337989;28;20873;-78
2022/01/31 11:35:02;;;;;;;2.53;0.67;;;7.60;99.90;;;;;;10346619;28;20693;-78
2022/01/31 11:40:09;;;;;;;3.80;0.90;;;7.40;99.90;;;;;;10342604;28;20324;-78
2022/01/31 11:45:40;;;;;;;4.43;0.73;;;7.30;99.90;;;;;;10335635;28;20745;-78
2022/01/31 11:50:45;;;;;;;1.23;0.50;;;7.30;99.90;;;;;;10344803;28;20266;-78
2022/01/31 11:55:48;;;;;;;2.00;0.60;;;7.30;99.90;;;;;;10350996;28;20222;-79
2022/01/31 12:00:49;;;;;;;3.37;0.80;;;7.10;99.90;;;;;;10335996;28;20715;-77
2022/01/31 12:05:49;;;;;;;3.23;0.93;;;7.00;99.90;;;;;;10350008;28;20304;-78
2022/01/31 12:11:10;;;;;;;2.00;0.90;;;6.90;99.90;;;;;;10365157;28;20701;-79
2022/01/31 12:16:39;;;;;;;3.37;0.80;;;6.90;99.90;;;;;;10350702;28;20229;-80
2022/01/31 12:22:00;;;;;;;1.83;0.60;;;7.00;99.90;;;;;;10366734;28;20225;-78
2022/01/31 12:27:12;;;;;;;0.80;0.50;;;7.10;99.90;;;;;;10341645;28;20310;-80
2022/01/31 12:32:39;;;;;;;2.13;0.50;;;7.20;99.90;;;;;;10350207;28;20225;-79
2022/01/31 12:37:51;;;;;;;1.57;0.50;;;7.20;99.90;;;;;;10351495;28;20497;-79
2022/01/31 12:48:22;;;;;;;2.00;0.90;;;7.10;99.90;;;;;;10365067;28;20303;-80
2022/01/31 12:58:41;;;;;;;2.67;0.80;;;7.10;99.90;;;;;;10361143;28;20646;-79
2022/01/31 13:03:45;;;;;;;3.13;1.03;;;7.10;99.90;;;;;;10340256;28;20233;-79
2022/01/31 13:08:45;;;;;;;1.43;0.60;;;7.10;99.90;;;;;;10345322;28;20230;-78
2022/01/31 13:13:46;;;;;;;1.10;0.60;;;7.20;99.90;;;;;;10363970;28;20225;-77
2022/01/31 13:18:51;;;;;;;1.77;0.60;;;7.30;99.90;;;;;;10337639;28;20256;-77
2022/01/31 13:23:57;;;;;;;1.20;0.60;;;7.40;99.90;;;;;;10334679;28;20332;-77
2022/01/31 13:28:57;;;;;;;1.17;0.60;;;7.30;99.90;;;;;;10347893;28;20237;-77
2022/01/31 13:34:00;;;;;;;1.40;0.50;;;7.30;99.90;;;;;;10349796;28;20697;-77
2022/01/31 13:39:01;;;;;;;1.10;0.57;;;7.30;99.90;;;;;;10341756;28;20230;-77
2022/01/31 13:44:03;;;;;;;3.23;0.60;;;7.10;99.90;;;;;;10361933;28;20225;-77
2022/01/31 13:49:18;;;;;;;1.70;0.63;;;6.90;99.90;;;;;;10347962;28;20241;-78
2022/01/31 13:54:21;;;;;;;2.30;0.60;;;6.70;99.90;;;;;;10338324;28;20233;-77
2022/01/31 13:59:26;;;;;;;1.13;0.50;;;6.70;99.90;;;;;;10356709;28;20694;-78
2022/01/31 14:04:31;;;;;;;2.07;0.73;;;6.60;99.90;;;;;;10346397;28;20292;-77
2022/01/31 14:09:34;;;;;;;0.70;0.40;;;6.50;99.90;;;;;;10362059;28;20228;-78
2022/01/31 14:14:35;;;;;;;1.57;0.50;;;6.50;99.90;;;;;;10350108;28;20225;-76
2022/01/31 14:19:39;;;;;;;1.27;0.60;;;6.50;99.90;;;;;;10339825;28;20558;-77
2022/01/31 14:24:46;;;;;;;1.50;0.77;;;6.50;99.90;;;;;;10347474;28;20217;-76
2022/01/31 14:29:56;;;;;;;1.60;0.50;;;6.50;99.90;;;;;;10344949;28;20226;-77
2022/01/31 14:34:59;;;;;;;1.43;0.50;;;6.50;99.90;;;;;;10357914;28;20245;-77
2022/01/31 14:40:25;;;;;;;0.77;0.43;;;6.50;99.90;;;;;;10351983;28;20665;-77
2022/01/31 14:50:45;;;;;;;2.53;0.83;;;6.70;99.90;;;;;;10356288;28;20724;-77
2022/01/31 14:55:49;;;;;;;1.07;0.60;;;6.60;99.90;;;;;;10332750;28;20309;-77
2022/01/31 15:00:50;;;;;;;2.33;0.70;;;6.60;99.90;;;;;;10341654;28;20229;-78
2022/01/31 15:05:54;;;;;;;0.47;0.40;;;6.70;99.90;;;;;;10343241;28;20257;-76
2022/01/31 15:10:55;;;;;;;1.87;0.60;;;6.60;99.90;;;;;;10339990;28;20789;-76
2022/01/31 15:16:05;;;;;;;1.17;0.40;;;6.60;99.90;;;;;;10347618;28;20280;-76
2022/01/31 15:21:07;;;;;;;2.47;0.60;;;6.60;99.90;;;;;;10361879;28;20237;-76
2022/01/31 15:26:11;;;;;;;1.80;0.40;;;6.60;99.90;;;;;;10348257;28;20218;-77
2022/01/31 15:31:12;;;;;;;1.60;0.70;;;6.60;99.90;;;;;;10350098;28;20217;-76
2022/01/31 15:36:15;;;;;;;3.07;0.97;;;6.50;99.90;;;;;;10347302;28;20308;-77
2022/01/31 15:41:17;;;;;;;1.73;0.43;;;6.60;99.90;;;;;;10347188;28;20246;-76
2022/01/31 15:46:18;;;;;;;0.50;0.40;;;6.60;99.90;;;;;;10352676;28;20224;-77
2022/01/31 15:51:18;;;;;;;0.50;0.37;;;6.60;99.90;;;;;;10338199;28;20233;-77
2022/01/31 15:56:19;;;;;;;1.80;0.40;;;6.60;99.90;;;;;;10357563;28;20748;-76
2022/01/31 16:01:24;;;;;;;0.70;0.40;;;6.50;99.90;;;;;;10345748;28;20273;-77
2022/01/31 16:06:28;;;;;;;0.83;0.53;;;6.50;99.90;;;;;;10337043;28;20253;-76
2022/01/31 16:11:29;;;;;;;0.87;0.37;;;6.50;99.90;;;;;;10341123;28;20225;-75
2022/01/31 16:16:30;;;;;;;1.13;0.57;;;6.50;99.90;;;;;;10354607;28;20859;-76
2022/01/31 16:21:30;;;;;;;0.90;0.50;;;6.40;99.90;;;;;;10328749;28;20236;-76
2022/01/31 16:26:31;;;;;;;1.00;0.40;;;6.40;99.90;;;;;;10340214;28;20218;-75
2022/01/31 16:31:32;;;;;;;0.87;0.40;;;6.40;99.90;;;;;;10333637;28;20231;-76
2022/01/31 16:36:33;;;;;;;0.60;0.20;;;6.30;99.90;;;;;;10363203;28;20228;-76
2022/01/31 16:41:34;;;;;;;0.67;0.37;;;6.30;99.90;;;;;;10332357;28;20236;-80
2022/01/31 16:46:39;;;;;;;0.47;0.40;;;6.20;99.90;;;;;;10332633;28;20309;-77
2022/01/31 16:51:40;;;;;;;1.33;0.50;;;6.20;99.90;;;;;;10352007;28;20284;-76
2022/01/31 16:56:41;;;;;;;0.70;0.30;;;6.20;99.90;;;;;;10355370;28;20780;-77
2022/01/31 17:01:42;;;;;;;1.30;0.37;;;6.10;99.90;;;;;;10348498;28;20233;-78
2022/01/31 17:06:43;;;;;;;1.60;0.40;;;6.20;99.90;;;;;;10352657;28;20240;-75
2022/01/31 17:11:44;;;;;;;0.50;0.30;;;6.10;99.90;;;;;;10336881;28;20300;-76
2022/01/31 17:16:48;;;;;;;0.60;0.37;;;6.10;99.90;;;;;;10361977;28;20337;-77
2022/01/31 17:21:48;;;;;;;0.47;0.30;;;6.10;99.90;;;;;;10347632;28;20316;-78
2022/01/31 17:26:52;;;;;;;0.97;0.50;;;6.20;99.90;;;;;;10338108;28;20349;-77
2022/01/31 17:31:52;;;;;;;2.33;0.57;;;6.10;99.90;;;;;;10357605;28;20238;-78
2022/01/31 17:36:53;;;;;;;0.90;0.40;;;6.10;99.90;;;;;;10362386;28;20245;-74
2022/01/31 17:42:00;;;;;;;0.87;0.30;;;6.10;99.90;;;;;;10352644;28;20221;-76
2022/01/31 17:47:01;;;;;;;0.67;0.40;;;6.10;99.90;;;;;;10345150;28;20209;-76
2022/01/31 17:52:02;;;;;;;1.00;0.30;;;6.00;99.90;;;;;;10350348;28;20222;-75
2022/01/31 17:57:04;;;;;;;1.13;0.40;;;6.00;99.90;;;;;;10341543;28;20217;-76
2022/01/31 18:02:05;;;;;;;0.90;0.40;;;6.00;99.90;;;;;;10354145;28;20233;-74
2022/01/31 18:07:06;;;;;;;0.60;0.40;;;6.00;99.90;;;;;;10340319;28;20674;-75
2022/01/31 18:12:09;;;;;;;2.70;0.70;;;6.10;99.90;;;;;;10361552;28;20602;-76
2022/01/31 18:17:12;;;;;;;0.47;0.40;;;6.10;99.90;;;;;;10353452;28;20639;-76
2022/01/31 18:22:13;;;;;;;0.80;0.40;;;6.10;99.90;;;;;;10369303;28;20222;-75
2022/01/31 18:27:13;;;;;;;1.53;0.40;;;6.10;99.90;;;;;;10352530;28;20233;-75
2022/01/31 18:32:14;;;;;;;1.53;0.70;;;6.10;99.90;;;;;;10353149;28;20225;-75
2022/01/31 18:37:15;;;;;;;5.97;0.60;;;6.10;99.90;;;;;;10368936;28;20230;-75
2022/01/31 18:42:16;;;;;;;2.57;0.53;;;6.20;99.90;;;;;;10338929;28;20224;-74
2022/01/31 18:47:18;;;;;;;0.93;0.50;;;6.20;99.90;;;;;;10337932;28;20225;-75
2022/01/31 18:52:19;;;;;;;3.03;1.00;;;6.20;99.90;;;;;;10341322;28;20233;-75
2022/01/31 18:57:20;;;;;;;1.63;0.70;;;6.20;99.90;;;;;;10358105;28;20774;-75
2022/01/31 19:02:20;;;;;;;0.77;0.50;;;6.20;99.90;;;;;;10335630;28;20256;-75
2022/01/31 19:07:21;;;;;;;3.23;0.80;;;6.20;99.90;;;;;;10359728;28;20222;-76
2022/01/31 19:12:31;;;;;;;1.93;0.90;;;6.20;99.90;;;;;;10344047;28;20278;-75
2022/01/31 19:17:35;;;;;;;1.47;0.90;;;6.30;99.90;;;;;;10347224;28;20229;-75
2022/01/31 19:22:36;;;;;;;2.63;0.60;;;6.30;99.90;;;;;;10361967;28;20705;-75
2022/01/31 19:27:36;;;;;;;1.20;0.60;;;6.30;99.90;;;;;;10345684;28;20316;-76
2022/01/31 19:32:39;;;;;;;3.93;0.70;;;6.30;99.90;;;;;;10358402;28;20221;-75
2022/01/31 19:37:40;;;;;;;2.10;0.70;;;6.30;99.90;;;;;;10356454;28;20277;-75
2022/01/31 19:48:00;;;;;;;2.00;0.93;;;6.30;99.90;;;;;;10359319;28;20222;-75
2022/01/31 19:53:01;;;;;;;3.50;0.80;;;6.30;99.90;;;;;;10335258;28;20218;-75
2022/01/31 19:58:01;;;;;;;2.27;0.70;;;6.30;99.90;;;;;;10364908;28;20227;-75
2022/01/31 20:03:06;;;;;;;1.43;0.73;;;6.40;99.90;;;;;;10339569;28;20796;-75
2022/01/31 20:08:10;;;;;;;1.00;0.80;;;6.30;99.90;;;;;;10358089;28;20249;-76
2022/01/31 20:13:12;;;;;;;2.33;1.20;;;6.40;99.90;;;;;;10359109;28;20244;-76
2022/01/31 20:18:14;;;;;;;1.07;0.80;;;6.30;99.90;;;;;;10330087;28;20650;-75
2022/01/31 20:23:21;;;;;;;2.03;1.23;;;6.40;99.90;;;;;;10344151;28;20221;-75
2022/01/31 20:28:24;;;;;;;2.33;1.23;;;6.30;99.90;;;;;;10344795;28;20217;-76
2022/01/31 20:33:26;;;;;;;3.03;0.97;;;6.30;99.90;;;;;;10363585;28;20228;-77
2022/01/31 20:38:30;;;;;;;3.67;1.40;;;6.30;99.90;;;;;;10351220;28;20608;-76
2022/01/31 20:43:31;;;;;;;2.87;1.50;;;6.30;99.90;;;;;;10343902;28;20217;-75
2022/01/31 20:48:32;;;;;;;3.60;1.67;;;6.30;99.90;;;;;;10356716;28;20602;-75
2022/01/31 20:53:36;;;;;;;2.20;1.30;;;6.30;99.90;;;;;;10338179;28;20303;-76
2022/01/31 20:58:37;;;;;;;5.40;1.60;;;6.30;99.90;;;;;;10361956;28;20763;-77
2022/01/31 21:03:37;;;;;;;3.53;1.90;;;6.30;99.90;;;;;;10332052;28;20282;-77
2022/01/31 21:08:44;;;;;;;5.37;1.53;;;6.30;99.90;;;;;;10361528;28;20353;-78
2022/01/31 21:14:00;;;;;;;3.63;1.33;;;6.30;99.90;;;;;;10342048;28;20599;-79
2022/01/31 21:19:02;;;;;;;2.20;1.40;;;6.30;99.90;;;;;;10349415;28;20359;-78
2022/01/31 21:24:05;;;;;;;2.00;1.10;;;6.40;99.90;;;;;;10341119;28;20225;-75
2022/01/31 21:29:09;;;;;;;1.30;1.10;;;6.40;99.90;;;;;;10352780;28;20260;-77
2022/01/31 21:34:09;;;;;;;2.53;1.20;;;6.40;99.90;;;;;;10340715;28;20226;-77
2022/01/31 21:39:10;;;;;;;3.13;2.10;;;6.40;99.90;;;;;;10352773;28;20227;-77
2022/01/31 21:44:11;;;;;;;3.07;1.40;;;6.50;99.90;;;;;;10342372;28;20305;-76
2022/01/31 21:49:12;;;;;;;2.90;1.80;;;6.50;99.90;;;;;;10327845;28;20595;-76
2022/01/31 21:54:18;;;;;;;2.63;1.40;;;6.50;99.90;;;;;;10367797;28;20225;-77
2022/01/31 21:59:19;;;;;;;3.50;1.70;;;6.50;99.90;;;;;;10349101;28;20226;-77
2022/01/31 22:04:20;;;;;;;2.60;1.53;;;6.40;99.90;;;;;;10366379;28;20335;-77
2022/01/31 22:09:24;;;;;;;2.73;1.30;;;6.40;99.90;;;;;;10355562;28;20272;-77
2022/01/31 22:14:25;;;;;;;3.53;1.63;;;6.50;99.90;;;;;;10341284;28;20221;-76
2022/01/31 22:19:29;;;;;;;2.87;1.70;;;6.50;99.90;;;;;;10352664;28;20312;-78
2022/01/31 22:24:29;;;;;;;2.60;1.77;;;6.40;99.90;;;;;;10364504;28;20238;-76
2022/01/31 22:29:30;;;;;;;3.03;1.73;;;6.30;99.90;;;;;;10359809;28;20221;-77
2022/01/31 22:34:31;;;;;;;4.23;1.77;;;6.30;99.90;;;;;;10377061;28;20219;-77
2022/01/31 22:39:35;;;;;;;2.20;1.50;;;6.40;99.90;;;;;;10373875;28;20880;-78
2022/01/31 22:44:39;;;;;;;1.70;1.27;;;6.40;99.90;;;;;;10372311;28;20766;-79
2022/01/31 22:49:42;;;;;;;2.20;1.50;;;6.30;99.90;;;;;;10371763;28;20815;-79
2022/01/31 22:54:43;;;;;;;1.93;1.33;;;6.40;99.90;;;;;;10386667;28;20261;-78
2022/01/31 22:59:43;;;;;;;1.80;1.40;;;6.40;99.90;;;;;;10354128;28;20232;-79
2022/01/31 23:04:44;;;;;;;1.63;1.30;;;6.40;99.90;;;;;;10359035;28;20235;-79
2022/01/31 23:09:45;;;;;;;1.50;1.40;;;6.30;99.90;;;;;;10358168;28;20229;-79
2022/01/31 23:14:51;;;;;;;1.93;1.10;;;6.30;99.90;;;;;;10356261;28;20236;-78
2022/01/31 23:20:26;;;;;;;1.93;1.17;;;6.30;99.90;;;;;;10357894;28;20221;-79
2022/01/31 23:53:17;;;;;;;1.60;0.90;;;6.30;99.90;;;;;;10353032;28;20225;-76
